Time;durP1;ratioP1;P1;durP2;ratioP2;P2;SDS_P1;SDS_P2;PMS_P1;PMS_P2;Temp;Humidity;BMP_temperature;BMP_pressure;BME280_temperature;BME280_humidity;BME280_pressure;Samples;Min_cycle;Max_cycle;Signal;HPM_P1;HPM_P2
2021/05/17 00:00:59;;;;;;;2.92;2.72;;;16.40;89.10;;;;;;5041243;28;20116;-77
2021/05/17 00:03:26;;;;;;;3.13;1.83;;;16.50;89.10;;;;;;5033905;28;20118;-76
2021/05/17 00:05:54;;;;;;;2.15;1.95;;;;;;;;;;5038236;28;20066;-76
2021/05/17 00:08:20;;;;;;;2.05;1.95;;;;;;;;;;5035800;28;20102;-76
2021/05/17 00:10:50;;;;;;;1.92;1.35;;;;;;;;;;5034407;28;20037;-76
2021/05/17 00:13:16;;;;;;;0.82;0.82;;;16.40;99.90;;;;;;5046637;28;20352;-77
2021/05/17 00:15:42;;;;;;;1.25;0.70;;;16.40;96.10;;;;;;5037050;28;20035;-77
2021/05/17 00:18:08;;;;;;;1.33;0.82;;;16.40;98.90;;;;;;5033346;28;20109;-76
2021/05/17 00:20:34;;;;;;;0.95;0.60;;;16.20;83.20;;;;;;5039306;28;20045;-77
2021/05/17 00:23:00;;;;;;;1.10;0.88;;;16.20;82.80;;;;;;5031713;28;20043;-66
2021/05/17 00:25:27;;;;;;;1.35;0.60;;;16.20;82.70;;;;;;5036810;28;20045;-75
2021/05/17 00:27:55;;;;;;;0.98;0.50;;;16.10;81.70;;;;;;5037538;28;20091;-76
2021/05/17 00:30:23;;;;;;;1.15;0.50;;;;;;;;;;5040126;28;20051;-74
2021/05/17 00:32:49;;;;;;;0.40;0.40;;;16.20;99.90;;;;;;5037354;28;20029;-75
2021/05/17 00:35:16;;;;;;;0.88;0.77;;;16.30;95.40;;;;;;5036410;28;20117;-75
2021/05/17 00:37:44;;;;;;;0.90;0.55;;;;;;;;;;5038500;28;20040;-75
2021/05/17 00:40:12;;;;;;;0.68;0.45;;;16.20;98.50;;;;;;5031816;28;20120;-75
2021/05/17 00:42:38;;;;;;;0.90;0.57;;;16.20;99.90;;;;;;5041216;28;20045;-75
2021/05/17 00:45:07;;;;;;;3.13;0.63;;;16.10;81.00;;;;;;5031539;28;20044;-76
2021/05/17 00:47:38;;;;;;;0.40;0.40;;;16.10;80.50;;;;;;5036236;28;20037;-76
2021/05/17 00:50:13;;;;;;;1.55;0.57;;;16.10;80.90;;;;;;5034530;28;20033;-76
2021/05/17 00:52:39;;;;;;;0.57;0.45;;;16.00;79.20;;;;;;5040917;28;20131;-77
2021/05/17 00:55:06;;;;;;;0.60;0.60;;;16.00;80.80;;;;;;5034400;28;20072;-76
2021/05/17 00:57:32;;;;;;;0.77;0.60;;;16.10;80.50;;;;;;5042442;28;20064;-75
2021/05/17 00:59:58;;;;;;;0.57;0.50;;;16.10;79.30;;;;;;5039203;28;20068;-76
2021/05/17 01:02:24;;;;;;;1.15;0.68;;;16.00;78.90;;;;;;5037235;28;20041;-76
2021/05/17 01:04:50;;;;;;;0.55;0.52;;;16.10;79.10;;;;;;5035933;28;20064;-76
2021/05/17 01:07:19;;;;;;;2.05;0.60;;;16.10;78.60;;;;;;5039778;28;20046;-76
2021/05/17 01:09:47;;;;;;;0.50;0.50;;;16.10;78.40;;;;;;5051041;28;20453;-76
2021/05/17 01:12:16;;;;;;;0.88;0.68;;;16.00;78.50;;;;;;5040340;28;20055;-76
2021/05/17 01:14:42;;;;;;;1.98;0.60;;;16.10;78.80;;;;;;5036948;28;20497;-77
2021/05/17 01:17:10;;;;;;;0.75;0.70;;;16.00;79.60;;;;;;5038160;28;20037;-75
2021/05/17 01:20:01;;;;;;;0.60;0.60;;;16.10;79.70;;;;;;5035219;28;20040;-76
2021/05/17 01:22:34;;;;;;;0.85;0.40;;;16.00;78.70;;;;;;5054231;28;20521;-76
2021/05/17 01:25:00;;;;;;;1.65;0.40;;;16.00;79.20;;;;;;5033772;28;20029;-74
2021/05/17 01:27:26;;;;;;;0.88;0.73;;;16.00;79.20;;;;;;5039955;28;20026;-75
2021/05/17 01:29:52;;;;;;;0.55;0.45;;;16.00;78.70;;;;;;5038103;28;20047;-76
2021/05/17 01:32:18;;;;;;;0.75;0.50;;;15.90;80.30;;;;;;5052011;28;20036;-75
2021/05/17 01:34:44;;;;;;;0.60;0.60;;;15.90;80.50;;;;;;5045375;28;20501;-76
2021/05/17 01:37:10;;;;;;;3.80;1.00;;;15.90;80.70;;;;;;5038466;28;20109;-75
2021/05/17 01:39:36;;;;;;;0.75;0.40;;;15.90;79.90;;;;;;5041382;28;20043;-76
2021/05/17 01:42:02;;;;;;;0.85;0.75;;;15.80;80.90;;;;;;5039613;28;20072;-75
2021/05/17 01:44:29;;;;;;;1.13;0.70;;;15.80;81.40;;;;;;5046968;28;20061;-76
2021/05/17 01:46:59;;;;;;;0.70;0.70;;;15.80;81.80;;;;;;5036119;28;20064;-77
2021/05/17 01:49:26;;;;;;;0.90;0.63;;;15.80;82.20;;;;;;5052836;28;20037;-77
2021/05/17 01:51:52;;;;;;;0.75;0.63;;;15.80;81.80;;;;;;5035143;28;20029;-76
2021/05/17 01:54:19;;;;;;;2.70;0.63;;;15.80;81.20;;;;;;5030692;28;20033;-77
2021/05/17 01:56:45;;;;;;;0.45;0.45;;;15.70;81.60;;;;;;5042722;28;20124;-77
2021/05/17 01:59:12;;;;;;;1.15;0.80;;;15.70;80.60;;;;;;5042417;28;20032;-77
2021/05/17 02:01:38;;;;;;;0.82;0.70;;;15.70;81.50;;;;;;5034506;28;20041;-77
2021/05/17 02:04:05;;;;;;;1.30;0.57;;;15.70;81.50;;;;;;5041253;28;20029;-77
2021/05/17 02:06:31;;;;;;;1.30;0.70;;;15.60;81.30;;;;;;5036933;28;20041;-77
2021/05/17 02:08:57;;;;;;;0.80;0.60;;;15.60;81.10;;;;;;5042821;28;20367;-77
2021/05/17 02:11:25;;;;;;;0.52;0.52;;;15.60;81.70;;;;;;5041730;28;20476;-76
2021/05/17 02:13:53;;;;;;;1.10;0.65;;;15.50;85.30;;;;;;5044873;28;20056;-76
2021/05/17 02:16:19;;;;;;;1.15;0.95;;;15.60;87.00;;;;;;5039043;28;20045;-76
2021/05/17 02:18:49;;;;;;;0.70;0.70;;;15.50;85.50;;;;;;5035976;28;20036;-77
2021/05/17 02:21:18;;;;;;;1.75;0.70;;;15.50;82.40;;;;;;5038450;28;20041;-77
2021/05/17 02:23:44;;;;;;;0.60;0.60;;;15.40;82.50;;;;;;5019266;28;20043;-77
2021/05/17 02:26:11;;;;;;;1.20;0.77;;;15.40;82.70;;;;;;5037961;28;20098;-76
2021/05/17 02:28:39;;;;;;;1.27;0.90;;;15.30;82.60;;;;;;5051941;28;20041;-76
2021/05/17 02:31:06;;;;;;;1.85;0.90;;;15.40;82.70;;;;;;5042137;28;20036;-78
2021/05/17 02:33:32;;;;;;;0.80;0.80;;;15.40;83.20;;;;;;5036606;28;20033;-76
2021/05/17 02:35:58;;;;;;;2.30;1.00;;;15.30;83.40;;;;;;5037596;28;20045;-76
2021/05/17 02:38:24;;;;;;;1.38;1.00;;;15.30;83.40;;;;;;5032458;28;20041;-77
2021/05/17 02:40:51;;;;;;;1.40;0.80;;;15.30;83.40;;;;;;5047939;28;20109;-76
2021/05/17 02:43:23;;;;;;;0.70;0.68;;;15.30;83.00;;;;;;5036571;28;20041;-77
2021/05/17 02:45:49;;;;;;;1.33;1.08;;;15.30;82.70;;;;;;5036553;28;20037;-74
2021/05/17 02:48:16;;;;;;;0.90;0.90;;;15.40;82.80;;;;;;5040161;28;20053;-75
2021/05/17 02:50:45;;;;;;;0.80;0.75;;;15.40;83.00;;;;;;5039780;28;20545;-77
2021/05/17 02:53:39;;;;;;;1.52;0.80;;;15.40;82.10;;;;;;5057771;28;20478;-78
2021/05/17 02:56:09;;;;;;;2.58;1.10;;;15.40;82.40;;;;;;5013544;28;20094;-77
2021/05/17 02:58:37;;;;;;;1.50;1.05;;;15.30;82.90;;;;;;5033915;28;20103;-77
2021/05/17 03:01:08;;;;;;;1.48;0.82;;;15.30;81.50;;;;;;5044064;28;20033;-76
2021/05/17 03:04:06;;;;;;;3.00;0.80;;;15.40;82.60;;;;;;5034507;28;20053;-76
2021/05/17 03:06:39;;;;;;;1.33;0.80;;;15.40;82.60;;;;;;5033468;28;20514;-76
2021/05/17 03:09:06;;;;;;;1.50;1.08;;;15.40;82.00;;;;;;5035709;28;20507;-76
2021/05/17 03:11:53;;;;;;;1.15;1.05;;;15.50;81.80;;;;;;5037535;28;20115;-75
2021/05/17 03:14:20;;;;;;;1.23;0.73;;;15.50;82.30;;;;;;5030683;28;20068;-76
2021/05/17 03:16:51;;;;;;;1.70;1.10;;;15.50;81.60;;;;;;5039072;28;20072;-75
2021/05/17 03:19:18;;;;;;;1.35;1.25;;;15.50;82.10;;;;;;5037522;28;20487;-76
2021/05/17 03:21:44;;;;;;;1.10;1.10;;;15.40;82.40;;;;;;5039566;28;20045;-76
2021/05/17 03:24:12;;;;;;;2.40;1.40;;;15.40;82.30;;;;;;5057106;28;20044;-76
2021/05/17 03:26:40;;;;;;;1.55;1.40;;;15.30;83.10;;;;;;5035507;28;20049;-77
2021/05/17 03:29:05;;;;;;;2.63;1.35;;;15.40;82.80;;;;;;5041031;28;20506;-76
2021/05/17 03:31:31;;;;;;;1.42;1.33;;;15.40;82.80;;;;;;5029968;28;20112;-75
2021/05/17 03:33:58;;;;;;;1.88;1.77;;;15.30;82.80;;;;;;5059218;28;20120;-76
2021/05/17 03:36:24;;;;;;;2.30;1.70;;;15.30;82.70;;;;;;5038044;28;20060;-76
2021/05/17 03:38:49;;;;;;;2.20;2.08;;;15.30;82.80;;;;;;5040072;28;20029;-76
2021/05/17 03:41:15;;;;;;;1.95;1.85;;;15.20;82.90;;;;;;5035910;28;20107;-76
2021/05/17 03:43:41;;;;;;;2.58;2.38;;;15.30;82.70;;;;;;5039730;28;20033;-77
2021/05/17 03:46:06;;;;;;;3.10;2.08;;;15.30;82.40;;;;;;5034491;28;20040;-77
2021/05/17 03:48:32;;;;;;;3.35;2.40;;;15.30;82.80;;;;;;5038604;28;20104;-76
2021/05/17 03:50:58;;;;;;;2.75;2.55;;;15.20;82.90;;;;;;5038862;28;20410;-76
2021/05/17 03:53:23;;;;;;;3.40;3.10;;;15.20;83.30;;;;;;5042925;28;20040;-75
2021/05/17 03:55:49;;;;;;;3.90;3.15;;;15.20;83.90;;;;;;5031019;28;20033;-76
2021/05/17 03:58:15;;;;;;;4.07;3.78;;;15.20;84.00;;;;;;5040880;28;20029;-75
2021/05/17 04:00:41;;;;;;;4.15;3.85;;;15.20;83.50;;;;;;5037703;28;20491;-76
2021/05/17 04:03:13;;;;;;;6.05;4.88;;;15.20;83.70;;;;;;5038229;28;20053;-75
2021/05/17 04:06:10;;;;;;;5.13;4.72;;;15.20;83.90;;;;;;5034765;28;20116;-76
2021/05/17 04:14:01;;;;;;;6.20;5.70;;;15.20;84.10;;;;;;5042755;28;20052;-70
2021/05/17 04:16:26;;;;;;;7.70;6.80;;;15.10;84.00;;;;;;5037249;28;20481;-75
2021/05/17 04:18:52;;;;;;;7.18;6.47;;;15.10;84.20;;;;;;5038587;28;20381;-76
2021/05/17 04:21:18;;;;;;;6.95;6.32;;;15.10;83.80;;;;;;5053057;28;20072;-76
2021/05/17 04:23:44;;;;;;;7.60;6.90;;;15.20;84.10;;;;;;5030274;28;20045;-76
2021/05/17 04:26:09;;;;;;;7.63;6.90;;;15.20;83.90;;;;;;5032660;28;20144;-76
2021/05/17 04:28:35;;;;;;;7.80;7.00;;;15.10;83.90;;;;;;5037165;28;20048;-77
2021/05/17 04:31:00;;;;;;;8.90;8.07;;;15.10;83.80;;;;;;5054009;28;20052;-71
2021/05/17 04:33:26;;;;;;;8.35;6.85;;;15.10;83.10;;;;;;5040209;28;20493;-77
2021/05/17 04:35:52;;;;;;;9.45;7.30;;;15.20;83.40;;;;;;5049999;28;20049;-76
2021/05/17 04:38:17;;;;;;;8.75;7.55;;;15.20;83.30;;;;;;5034922;28;20029;-77
2021/05/17 04:40:45;;;;;;;8.10;7.40;;;15.20;83.30;;;;;;5036808;28;20037;-76
2021/05/17 04:43:11;;;;;;;7.72;7.03;;;15.20;83.40;;;;;;5037613;28;20060;-76
2021/05/17 04:45:37;;;;;;;8.27;7.57;;;15.20;83.00;;;;;;5034531;28;20034;-76
2021/05/17 04:48:02;;;;;;;8.60;7.70;;;15.20;83.10;;;;;;5029830;28;20072;-75
2021/05/17 04:50:28;;;;;;;8.65;7.65;;;15.20;83.00;;;;;;5039789;28;20037;-77
2021/05/17 04:52:54;;;;;;;9.50;8.50;;;15.20;83.20;;;;;;5036253;28;20117;-76
2021/05/17 04:55:19;;;;;;;8.82;7.97;;;15.20;83.40;;;;;;5036170;28;20104;-77
2021/05/17 04:57:45;;;;;;;8.25;7.40;;;15.30;83.40;;;;;;5036497;28;20135;-76
2021/05/17 05:00:12;;;;;;;8.52;7.57;;;15.20;83.10;;;;;;5032862;28;20037;-76
2021/05/17 05:02:39;;;;;;;8.73;7.90;;;15.20;83.00;;;;;;5055276;28;20495;-77
2021/05/17 05:05:05;;;;;;;8.48;7.65;;;15.30;83.10;;;;;;5034169;28;20037;-77
2021/05/17 05:07:31;;;;;;;8.25;7.30;;;15.30;82.90;;;;;;5037568;28;20495;-73
2021/05/17 05:09:56;;;;;;;8.32;7.53;;;15.20;81.90;;;;;;5032393;28;20110;-75
2021/05/17 05:12:22;;;;;;;7.97;7.28;;;15.10;81.80;;;;;;5037858;28;20083;-77
2021/05/17 05:14:47;;;;;;;9.57;7.13;;;15.20;82.20;;;;;;5036900;28;20061;-76
2021/05/17 05:17:13;;;;;;;7.32;6.63;;;15.20;82.00;;;;;;5035593;28;20033;-77
2021/05/17 05:19:39;;;;;;;7.72;6.97;;;15.20;81.90;;;;;;5033445;28;20040;-76
2021/05/17 05:22:04;;;;;;;7.72;6.93;;;15.10;81.70;;;;;;5033433;28;20079;-76
2021/05/17 05:24:30;;;;;;;8.73;7.82;;;15.10;82.20;;;;;;5039528;28;20478;-77
2021/05/17 05:29:35;;;;;;;7.32;6.63;;;15.20;81.60;;;;;;5033009;28;20056;-76
2021/05/17 05:34:34;;;;;;;7.90;7.10;;;15.30;82.00;;;;;;5038981;28;20044;-76
2021/05/17 05:37:01;;;;;;;7.30;6.70;;;15.20;82.00;;;;;;5040043;28;20036;-76
2021/05/17 05:39:27;;;;;;;7.63;6.60;;;15.30;81.90;;;;;;5043280;28;20068;-77
2021/05/17 05:41:53;;;;;;;6.88;5.93;;;15.30;81.70;;;;;;5043673;28;20459;-76
2021/05/17 05:44:18;;;;;;;8.43;6.13;;;15.30;80.70;;;;;;5043550;28;20044;-76
2021/05/17 05:46:45;;;;;;;6.95;6.03;;;15.20;80.30;;;;;;5033473;28;20075;-76
2021/05/17 05:49:14;;;;;;;8.10;7.30;;;15.30;80.70;;;;;;5045780;28;20479;-76
2021/05/17 05:51:40;;;;;;;6.35;5.75;;;15.30;80.80;;;;;;5035403;28;20123;-76
2021/05/17 05:54:06;;;;;;;7.60;6.82;;;15.40;80.40;;;;;;5042103;28;21365;-75
2021/05/17 05:56:32;;;;;;;6.82;6.22;;;15.40;80.90;;;;;;5038599;28;20041;-75
2021/05/17 05:58:58;;;;;;;6.35;5.75;;;15.40;80.10;;;;;;5047749;28;20485;-77
2021/05/17 06:01:23;;;;;;;10.32;5.75;;;15.40;80.20;;;;;;5035719;28;20435;-76
2021/05/17 06:03:50;;;;;;;5.20;4.53;;;15.40;80.00;;;;;;5053637;28;20041;-76
2021/05/17 06:06:15;;;;;;;7.20;5.93;;;15.50;78.80;;;;;;5033894;28;20029;-76
2021/05/17 06:08:43;;;;;;;6.95;5.10;;;15.40;78.80;;;;;;5054211;28;20053;-76
2021/05/17 06:11:10;;;;;;;5.18;4.70;;;15.50;78.40;;;;;;5036362;28;20071;-76
2021/05/17 06:13:38;;;;;;;4.93;4.53;;;15.50;78.60;;;;;;5041116;28;20124;-75
2021/05/17 06:16:05;;;;;;;4.80;4.05;;;15.50;77.20;;;;;;5038301;28;20045;-75
2021/05/17 06:18:31;;;;;;;5.10;4.68;;;15.60;77.60;;;;;;5035992;28;20068;-72
2021/05/17 06:20:58;;;;;;;5.82;4.05;;;15.70;77.00;;;;;;5057227;28;20061;-76
2021/05/17 06:23:24;;;;;;;3.63;3.30;;;15.70;77.00;;;;;;5039004;28;20041;-76
2021/05/17 06:25:50;;;;;;;4.68;3.22;;;15.80;76.30;;;;;;5042342;28;20120;-77
2021/05/17 06:28:20;;;;;;;3.63;2.80;;;15.80;75.50;;;;;;5039707;28;20044;-77
2021/05/17 06:30:56;;;;;;;2.90;2.70;;;15.80;75.30;;;;;;5036320;28;20101;-77
2021/05/17 06:33:22;;;;;;;3.35;2.80;;;15.90;75.50;;;;;;5039628;28;20049;-76
2021/05/17 06:35:56;;;;;;;3.13;2.83;;;16.00;75.80;;;;;;5036863;28;20127;-76
2021/05/17 06:38:24;;;;;;;4.05;2.60;;;16.00;74.50;;;;;;5036363;28;20037;-77
2021/05/17 06:40:49;;;;;;;4.65;2.83;;;16.00;74.30;;;;;;5042659;28;20057;-76
2021/05/17 06:43:16;;;;;;;3.47;3.00;;;16.10;73.60;;;;;;5038349;28;20495;-76
2021/05/17 06:45:42;;;;;;;5.60;2.70;;;16.10;73.00;;;;;;5042258;28;20041;-77
2021/05/17 06:48:09;;;;;;;8.00;3.15;;;16.20;72.80;;;;;;5039718;28;20056;-77
2021/05/17 06:50:35;;;;;;;3.47;3.05;;;16.20;73.30;;;;;;5036198;28;20048;-76
2021/05/17 06:53:42;;;;;;;3.15;2.70;;;16.20;72.90;;;;;;5035473;28;20602;-70
2021/05/17 06:56:15;;;;;;;6.00;3.95;;;16.30;71.90;;;;;;5001363;28;20041;-76
2021/05/17 06:58:55;;;;;;;5.72;3.63;;;16.30;71.30;;;;;;5031803;28;20041;-76
2021/05/17 07:01:21;;;;;;;5.25;4.53;;;16.40;71.90;;;;;;5037135;28;20044;-77
2021/05/17 07:03:48;;;;;;;5.57;5.07;;;16.40;72.20;;;;;;5033980;28;20045;-76
2021/05/17 07:06:20;;;;;;;5.18;4.68;;;16.40;70.80;;;;;;5048843;28;20037;-76
2021/05/17 07:11:50;;;;;;;7.35;5.10;;;16.60;72.00;;;;;;5016546;28;20044;-76
2021/05/17 07:14:16;;;;;;;6.32;5.60;;;16.60;71.90;;;;;;5047923;28;20547;-77
2021/05/17 07:16:42;;;;;;;6.88;5.90;;;16.70;72.10;;;;;;5031386;28;20041;-77
2021/05/17 07:19:08;;;;;;;7.53;5.60;;;16.70;71.20;;;;;;5022686;28;20616;-78
2021/05/17 07:24:22;;;;;;;7.13;5.93;;;16.80;70.60;;;;;;5028595;28;20062;-78
2021/05/17 07:26:49;;;;;;;7.70;6.20;;;16.80;71.90;;;;;;5034355;28;20068;-78
2021/05/17 07:29:16;;;;;;;8.32;6.15;;;16.90;71.30;;;;;;5030180;28;20041;-79
2021/05/17 07:31:42;;;;;;;7.32;5.97;;;16.90;70.30;;;;;;5027174;28;20036;-77
2021/05/17 07:34:11;;;;;;;6.78;6.07;;;16.90;70.50;;;;;;5029112;28;20045;-77
2021/05/17 07:36:36;;;;;;;8.57;6.15;;;17.00;69.70;;;;;;5050663;28;21890;-78
2021/05/17 07:39:04;;;;;;;8.90;6.15;;;17.10;68.80;;;;;;5037854;28;20090;-76
2021/05/17 07:41:29;;;;;;;7.57;5.18;;;17.10;69.30;;;;;;5028798;28;20133;-78
2021/05/17 07:43:55;;;;;;;6.60;5.65;;;17.20;69.20;;;;;;5026702;28;20502;-77
2021/05/17 07:46:20;;;;;;;7.85;5.53;;;17.20;68.80;;;;;;5029799;28;20123;-78
2021/05/17 07:51:31;;;;;;;5.63;4.40;;;17.40;68.90;;;;;;5022811;28;20931;-78
2021/05/17 07:53:56;;;;;;;11.82;5.72;;;17.40;66.90;;;;;;5052261;28;20040;-77
2021/05/17 07:56:23;;;;;;;4.72;4.32;;;17.40;67.40;;;;;;5037897;28;20426;-76
2021/05/17 07:58:51;;;;;;;6.45;4.50;;;17.40;63.80;;;;;;5038548;28;20041;-77
2021/05/17 08:01:20;;;;;;;7.15;4.20;;;17.50;65.60;;;;;;5026945;28;20044;-76
2021/05/17 08:03:46;;;;;;;5.05;4.28;;;17.50;64.20;;;;;;5031298;28;20044;-75
2021/05/17 08:06:11;;;;;;;4.72;4.13;;;17.60;65.80;;;;;;5033201;28;20566;-76
2021/05/17 08:08:37;;;;;;;8.07;5.93;;;17.60;64.90;;;;;;5038906;28;20854;-76
2021/05/17 08:11:04;;;;;;;6.50;5.15;;;17.60;66.70;;;;;;5019999;28;20406;-75
2021/05/17 08:13:30;;;;;;;6.32;5.18;;;17.60;67.70;;;;;;5030891;28;20660;-76
2021/05/17 08:15:56;;;;;;;5.82;4.97;;;17.70;63.10;;;;;;5027610;28;20510;-76
2021/05/17 08:18:21;;;;;;;7.25;4.60;;;17.70;63.30;;;;;;5028799;28;20067;-76
2021/05/17 08:20:48;;;;;;;5.30;4.78;;;17.80;61.90;;;;;;5018153;28;20360;-77
2021/05/17 08:23:16;;;;;;;6.05;4.97;;;17.80;61.40;;;;;;5028213;28;20048;-76
2021/05/17 08:25:46;;;;;;;8.00;6.40;;;17.80;64.00;;;;;;5031253;28;20131;-76
2021/05/17 08:28:13;;;;;;;7.13;5.47;;;17.80;64.50;;;;;;5025260;28;20037;-75
2021/05/17 08:30:43;;;;;;;10.15;5.18;;;17.90;62.00;;;;;;5031486;28;20044;-75
2021/05/17 08:33:09;;;;;;;6.65;5.43;;;18.10;61.50;;;;;;5026653;28;20390;-76
2021/05/17 08:35:36;;;;;;;5.03;4.15;;;18.20;60.50;;;;;;5031293;28;20049;-75
2021/05/17 08:38:03;;;;;;;5.47;3.53;;;18.10;60.10;;;;;;5031328;28;20052;-74
2021/05/17 08:40:33;;;;;;;4.70;3.63;;;18.20;58.70;;;;;;5035000;28;20045;-76
2021/05/17 08:42:58;;;;;;;4.72;3.08;;;18.30;56.20;;;;;;5020564;28;20072;-75
2021/05/17 08:45:24;;;;;;;3.92;2.70;;;18.30;56.00;;;;;;5040017;28;20440;-75
2021/05/17 08:47:51;;;;;;;5.00;2.92;;;18.30;56.40;;;;;;5029855;28;20069;-75
2021/05/17 08:50:16;;;;;;;4.85;3.20;;;18.40;55.20;;;;;;5036835;28;20163;-74
2021/05/17 08:52:42;;;;;;;3.30;3.00;;;18.30;55.30;;;;;;5024041;28;20101;-75
2021/05/17 08:55:10;;;;;;;2.65;2.45;;;18.40;55.90;;;;;;5018700;28;20051;-74
2021/05/17 08:57:36;;;;;;;3.25;2.10;;;18.40;55.80;;;;;;5027296;28;20056;-74
2021/05/17 09:00:05;;;;;;;2.17;1.85;;;18.40;53.60;;;;;;5031622;28;20064;-73
2021/05/17 09:02:31;;;;;;;2.10;1.65;;;;;;;;;;5026960;28;20042;-73
2021/05/17 09:05:15;;;;;;;3.22;2.30;;;18.50;53.20;;;;;;5034149;28;20060;-75
2021/05/17 09:07:50;;;;;;;4.72;3.10;;;18.60;51.60;;;;;;5015523;28;20029;-75
2021/05/17 09:10:39;;;;;;;2.70;2.50;;;18.70;52.80;;;;;;5034501;28;20049;-77
2021/05/17 09:13:07;;;;;;;3.03;2.65;;;18.80;49.40;;;;;;5029151;28;20545;-73
2021/05/17 09:15:35;;;;;;;2.83;1.98;;;18.80;53.00;;;;;;5037558;28;20055;-76
2021/05/17 09:18:11;;;;;;;2.33;1.15;;;18.90;51.40;;;;;;5026001;28;20491;-75
2021/05/17 09:20:38;;;;;;;3.28;1.30;;;19.00;49.60;;;;;;5017150;28;20114;-76
2021/05/17 09:23:29;;;;;;;1.67;1.40;;;19.10;48.80;;;;;;5033672;28;20049;-76
2021/05/17 09:26:03;;;;;;;2.35;0.68;;;19.10;45.10;;;;;;5033448;28;20087;-77
2021/05/17 09:28:34;;;;;;;0.90;0.90;;;19.10;46.30;;;;;;5028852;28;20052;-77
2021/05/17 09:31:04;;;;;;;1.98;0.75;;;19.10;47.00;;;;;;5035835;28;21114;-77
2021/05/17 09:33:38;;;;;;;1.95;0.93;;;;;;;;;;5033204;28;20041;-75
2021/05/17 09:36:05;;;;;;;1.13;0.57;;;19.40;42.90;;;;;;5033468;28;20086;-77
2021/05/17 09:38:32;;;;;;;0.75;0.70;;;19.30;45.50;;;;;;5038637;28;20047;-77
2021/05/17 09:40:59;;;;;;;1.35;0.60;;;19.30;45.50;;;;;;5027898;28;20079;-77
2021/05/17 09:43:25;;;;;;;2.17;1.23;;;19.30;43.90;;;;;;5034467;28;20141;-78
2021/05/17 09:45:51;;;;;;;1.52;1.00;;;19.40;43.60;;;;;;5032475;28;20047;-78
2021/05/17 09:48:22;;;;;;;3.63;0.82;;;19.40;42.70;;;;;;5032352;28;20128;-78
2021/05/17 09:51:08;;;;;;;2.63;0.88;;;19.60;41.60;;;;;;5043956;28;20041;-77
2021/05/17 09:53:41;;;;;;;0.98;0.60;;;19.60;41.50;;;;;;5034713;28;20083;-78
2021/05/17 09:56:23;;;;;;;1.17;0.55;;;19.80;41.70;;;;;;5028682;28;20040;-77
2021/05/17 09:58:55;;;;;;;2.22;1.60;;;19.80;40.80;;;;;;5033473;28;20449;-78
2021/05/17 10:01:29;;;;;;;1.10;1.00;;;;;;;;;;5035361;28;20041;-77
2021/05/17 10:04:03;;;;;;;3.40;0.57;;;19.90;54.60;;;;;;5031985;28;20585;-77
2021/05/17 10:06:29;;;;;;;2.00;0.80;;;19.90;41.90;;;;;;5029508;28;20057;-76
2021/05/17 10:08:55;;;;;;;1.13;0.75;;;;;;;;;;5034200;28;20045;-78
2021/05/17 10:11:23;;;;;;;2.03;1.30;;;20.40;69.20;;;;;;5028508;28;20042;-78
2021/05/17 10:13:49;;;;;;;0.73;0.57;;;20.50;41.30;;;;;;5030499;28;20055;-78
2021/05/17 10:16:17;;;;;;;1.25;0.70;;;20.40;39.70;;;;;;5046416;28;20041;-78
2021/05/17 10:18:44;;;;;;;1.55;0.85;;;20.20;40.00;;;;;;5033743;28;20103;-79
2021/05/17 10:21:16;;;;;;;1.25;0.70;;;20.40;39.00;;;;;;5030955;28;20045;-78
2021/05/17 10:23:43;;;;;;;1.48;0.77;;;20.40;38.90;;;;;;5036060;28;20041;-79
2021/05/17 10:26:22;;;;;;;0.98;0.52;;;20.50;37.10;;;;;;5040010;28;20041;-79
2021/05/17 10:28:52;;;;;;;1.52;0.80;;;20.70;37.50;;;;;;5048918;28;20090;-81
2021/05/17 10:31:19;;;;;;;2.38;1.45;;;20.80;36.90;;;;;;5031329;28;20033;-82
2021/05/17 10:33:59;;;;;;;1.73;0.90;;;20.70;37.20;;;;;;5031592;28;20046;-80
2021/05/17 10:36:47;;;;;;;1.13;1.02;;;20.60;39.30;;;;;;5029637;28;20311;-82
2021/05/17 10:39:14;;;;;;;2.08;0.80;;;20.90;36.60;;;;;;5011132;28;20083;-80
2021/05/17 10:47:47;;;;;;;2.05;0.88;;;21.30;37.10;;;;;;4997650;28;20091;-80
2021/05/17 10:50:19;;;;;;;1.45;1.00;;;;;;;;;;5033234;28;20033;-80
2021/05/17 10:52:45;;;;;;;3.40;1.08;;;21.80;68.40;;;;;;5034959;28;20044;-80
2021/05/17 10:55:14;;;;;;;1.75;0.55;;;21.80;35.40;;;;;;5036723;28;20041;-80
2021/05/17 11:00:34;;;;;;;2.25;1.33;;;21.50;40.50;;;;;;5032155;28;20146;-79
2021/05/17 11:03:25;;;;;;;1.00;0.70;;;22.10;34.40;;;;;;5032362;28;20097;-78
2021/05/17 11:05:54;;;;;;;0.85;0.68;;;;;;;;;;4986483;28;20048;-79
2021/05/17 11:08:20;;;;;;;1.52;1.38;;;;;;;;;;5029683;28;20167;-75
2021/05/17 11:10:58;;;;;;;2.53;1.30;;;25.70;31.90;;;;;;5043210;28;20049;-71
2021/05/17 11:13:30;;;;;;;1.65;1.50;;;25.40;28.10;;;;;;5033020;28;21104;-74
2021/05/17 11:15:59;;;;;;;2.10;1.38;;;25.60;25.70;;;;;;5032865;28;20036;-70
2021/05/17 11:18:35;;;;;;;3.08;1.20;;;25.80;25.90;;;;;;5022033;28;20029;-73
2021/05/17 11:21:12;;;;;;;0.98;0.68;;;26.00;27.50;;;;;;5034512;28;20387;-72
2021/05/17 11:23:38;;;;;;;2.10;0.88;;;26.00;25.20;;;;;;4997892;28;20144;-71
2021/05/17 11:26:10;;;;;;;4.93;2.33;;;26.10;28.70;;;;;;5028629;28;20505;-72
2021/05/17 11:31:50;;;;;;;1.33;0.80;;;26.30;26.40;;;;;;5054099;28;20157;-73
2021/05/17 11:34:07;;;;;;;3.85;1.63;;;26.60;24.60;;;;;;4961214;28;20045;-72
2021/05/17 11:36:54;;;;;;;2.92;1.33;;;27.00;23.70;;;;;;5038326;28;20048;-70
2021/05/17 11:39:27;;;;;;;2.88;1.40;;;28.50;21.20;;;;;;5042877;28;20494;-69
2021/05/17 11:41:59;;;;;;;0.90;0.60;;;29.10;21.30;;;;;;5030846;28;20057;-76
2021/05/17 11:47:29;;;;;;;2.45;0.90;;;28.10;21.40;;;;;;5013034;28;20163;-78
2021/05/17 11:49:56;;;;;;;0.63;0.63;;;27.30;20.90;;;;;;5039053;28;20041;-79
2021/05/17 11:52:23;;;;;;;1.20;0.68;;;26.90;21.30;;;;;;5032183;28;20570;-83
2021/05/17 11:54:54;;;;;;;1.80;0.47;;;27.00;23.00;;;;;;5033370;28;20043;-81
2021/05/17 11:57:32;;;;;;;1.15;0.52;;;26.90;20.30;;;;;;5036953;28;20076;-80
2021/05/17 12:00:06;;;;;;;0.73;0.70;;;26.90;21.30;;;;;;5026535;28;20041;-76
2021/05/17 12:02:32;;;;;;;;;;;26.70;20.30;;;;;;5022451;28;20092;-77
2021/05/17 12:04:58;;;;;;;1.50;0.47;;;26.90;20.70;;;;;;5031331;28;20289;-76
2021/05/17 12:07:24;;;;;;;1.02;0.20;;;26.90;22.00;;;;;;5029880;28;20033;-76
2021/05/17 12:09:51;;;;;;;0.70;0.63;;;26.90;21.40;;;;;;5031256;28;20051;-76
2021/05/17 12:12:26;;;;;;;1.65;0.50;;;26.80;20.30;;;;;;5032283;28;20063;-76
2021/05/17 12:14:58;;;;;;;2.75;0.85;;;27.30;21.50;;;;;;5038166;28;20586;-76
2021/05/17 12:17:25;;;;;;;2.47;1.27;;;27.60;21.30;;;;;;5036002;28;20041;-80
2021/05/17 12:19:58;;;;;;;1.73;0.95;;;27.90;21.50;;;;;;5035831;28;20978;-71
2021/05/17 12:22:37;;;;;;;2.83;1.13;;;27.80;20.90;;;;;;5032070;28;20041;-69
2021/05/17 12:25:11;;;;;;;1.00;0.90;;;27.40;20.60;;;;;;5029425;28;20053;-65
2021/05/17 12:27:37;;;;;;;0.63;0.52;;;27.20;19.70;;;;;;5020703;28;20041;-70
2021/05/17 12:30:15;;;;;;;1.65;0.57;;;27.30;22.10;;;;;;5018720;28;20619;-68
2021/05/17 12:32:45;;;;;;;1.73;0.57;;;27.40;19.90;;;;;;5025239;28;20032;-69
2021/05/17 12:35:30;;;;;;;0.73;0.50;;;27.60;20.00;;;;;;5043410;28;20029;-69
2021/05/17 12:37:58;;;;;;;1.73;0.68;;;27.50;19.70;;;;;;5028887;28;20034;-69
2021/05/17 12:40:40;;;;;;;1.27;0.50;;;27.80;20.50;;;;;;5022692;28;20034;-70
2021/05/17 12:43:36;;;;;;;2.40;0.63;;;28.00;18.40;;;;;;5023507;28;20053;-69
2021/05/17 12:46:03;;;;;;;2.38;2.00;;;28.20;18.60;;;;;;5016446;28;20060;-70
2021/05/17 12:48:44;;;;;;;2.65;1.05;;;28.30;20.10;;;;;;5024938;28;20037;-70
2021/05/17 12:51:25;;;;;;;0.75;0.75;;;28.50;20.10;;;;;;5011319;28;20521;-69
2021/05/17 12:53:55;;;;;;;3.03;1.05;;;28.80;18.30;;;;;;5038233;28;20134;-69
2021/05/17 12:56:23;;;;;;;2.90;0.80;;;28.60;18.30;;;;;;5048678;28;20071;-69
2021/05/17 12:58:49;;;;;;;0.60;0.60;;;29.00;16.10;;;;;;5037822;28;20071;-69
2021/05/17 13:01:17;;;;;;;1.75;0.30;;;29.90;16.10;;;;;;5049065;28;20045;-69
2021/05/17 13:03:47;;;;;;;0.93;0.40;;;30.50;14.90;;;;;;5024368;28;20041;-69
2021/05/17 13:06:19;;;;;;;1.45;0.50;;;32.10;14.40;;;;;;5041762;28;20506;-70
2021/05/17 13:08:51;;;;;;;1.05;0.45;;;34.70;15.30;;;;;;5029617;28;20044;-70
2021/05/17 13:11:26;;;;;;;3.53;0.63;;;36.30;15.00;;;;;;5023651;28;20419;-69
2021/05/17 13:14:04;;;;;;;1.80;0.43;;;35.00;13.80;;;;;;5024250;28;20620;-70
2021/05/17 13:16:38;;;;;;;0.40;0.40;;;34.20;13.60;;;;;;5042805;28;20107;-69
2021/05/17 13:19:30;;;;;;;0.40;0.40;;;33.00;14.30;;;;;;5022940;28;20864;-69
2021/05/17 13:33:05;;;;;;;1.15;0.40;;;29.00;16.80;;;;;;5027374;28;19939;-69
2021/05/17 13:35:30;;;;;;;0.98;0.40;;;28.00;17.10;;;;;;5028061;28;20041;-69
2021/05/17 13:37:56;;;;;;;0.30;0.30;;;27.60;17.10;;;;;;5032939;28;20475;-69
2021/05/17 13:40:24;;;;;;;1.65;0.60;;;27.10;16.80;;;;;;5028470;28;20037;-69
2021/05/17 13:42:50;;;;;;;1.35;0.80;;;27.10;18.40;;;;;;5030946;28;20045;-69
2021/05/17 13:45:17;;;;;;;0.85;0.60;;;27.30;18.20;;;;;;5023351;28;20515;-68